メインページ
METAR-TAF:

METAR-TAF

空港 :

北京首都国際空港

北京, 中華人民共和国

緯度: 39-56N, 経度: 116-17E, 海抜: 55m

現時点の気象観測

当レポートは26分前の23:30(UTC)に作成
の風 4kt
気温 13°C
湿度 82%
気圧 1023 hPa
視程10km以上
1,500メートル以下は雲なし、積乱雲なし

METAR: ZBAA 242330Z 01002MPS CAVOK 13/10 Q1023 NOSIG

時間: 07:56 (23:56 UTC)

予報

当レポートは2時間26分前の21:30(UTC)に作成
予報は25日の 00時(UTC)から 25日の 24時(UTC)まで有効
南/南東の風 8kt
視程: 6000m
25日の 19時(UTC)から 25日の 24時(UTC)まで一時的に
視程: 2700m
小雨, 靄

TAF: ZBAA 242130Z 2500/2524 16004MPS 6000 NSC TX23/2506Z TN11/2521Z TEMPO 2519/2524 2700 -RA BR

4,000以上の空港の気象観測と天気予報(METAR報とTAF報)

利用可能な観測所は地図上に黄色い丸と赤い丸で示す。

丸の上にカーソルを重ねると観測所名を参照できる。

次にクリックすると気象観測と天気予報を参照できる。

マップの切り替え:黒色「×」印の緑ボタンをクリックして拡大、「-」印の緑ボタンをクリックして縮小、緑色の三角印をクリックして隣りの地図に切り替え


METAR-TAF: